createdAt,value
2019-05-23T00:01:57.743Z,5.50
2019-05-23T00:04:44.243Z,6.77
2019-05-23T00:07:17.240Z,9.80
2019-05-23T00:09:47.307Z,8.23
2019-05-23T00:12:35.573Z,8.17
2019-05-23T00:15:08.912Z,4.33
2019-05-23T00:17:39.300Z,8.60
2019-05-23T00:20:10.434Z,7.60
2019-05-23T00:22:39.390Z,9.50
2019-05-23T00:25:10.281Z,7.90
2019-05-23T00:27:40.857Z,8.53
2019-05-23T00:30:13.241Z,8.23
2019-05-23T00:32:49.570Z,13.60
2019-05-23T00:38:13.516Z,8.30
2019-05-23T00:40:43.618Z,11.83
2019-05-23T00:43:12.992Z,6.80
2019-05-23T00:45:43.321Z,7.57
2019-05-23T00:48:12.595Z,7.63
2019-05-23T00:50:43.383Z,8.67
2019-05-23T00:53:13.456Z,4.93
2019-05-23T00:55:42.099Z,5.97
2019-05-23T00:58:12.058Z,10.03
2019-05-23T01:00:40.694Z,10.27
2019-05-23T01:03:11.593Z,6.33
2019-05-23T01:05:41.801Z,10.10
2019-05-23T01:08:10.914Z,6.70
2019-05-23T01:10:39.657Z,8.07
2019-05-23T01:13:10.645Z,7.90
2019-05-23T01:15:41.889Z,8.73
2019-05-23T01:18:10.680Z,10.47
2019-05-23T01:20:47.012Z,9.53
2019-05-23T01:23:17.172Z,8.53
2019-05-23T01:25:47.009Z,7.43
2019-05-23T01:28:15.732Z,8.93
2019-05-23T01:30:49.025Z,7.37
2019-05-23T01:33:18.574Z,6.37
2019-05-23T01:35:48.388Z,8.73
2019-05-23T01:38:18.858Z,7.07
2019-05-23T01:40:47.600Z,8.67
2019-05-23T01:43:18.027Z,8.80
2019-05-23T01:45:46.687Z,6.17
2019-05-23T01:48:15.915Z,9.73
2019-05-23T01:50:44.476Z,8.73
2019-05-23T01:53:13.517Z,12.43
2019-05-23T01:55:42.534Z,9.07
2019-05-23T01:58:11.439Z,9.90
2019-05-23T02:00:40.195Z,8.57
2019-05-23T02:03:09.181Z,7.87
2019-05-23T02:05:38.426Z,6.03
2019-05-23T02:08:09.223Z,8.13
2019-05-23T02:10:38.230Z,9.37
2019-05-23T02:13:09.307Z,7.37
2019-05-23T02:15:37.758Z,7.80
2019-05-23T02:18:06.479Z,12.37
2019-05-23T02:20:35.355Z,8.63
2019-05-23T02:23:04.679Z,12.17
2019-05-23T02:25:35.636Z,9.83
2019-05-23T02:28:05.045Z,10.07
2019-05-23T02:30:35.931Z,6.50
2019-05-23T02:33:05.774Z,9.87
2019-05-23T02:35:35.498Z,11.10
2019-05-23T02:38:06.249Z,10.50
2019-05-23T02:40:40.252Z,10.13
2019-05-23T02:43:17.056Z,10.93
2019-05-23T02:45:53.323Z,11.07
2019-05-23T02:48:24.315Z,11.03
2019-05-23T02:51:07.265Z,10.87
2019-05-23T02:53:37.535Z,9.33
2019-05-23T02:59:35.398Z,13.47
2019-05-23T03:02:40.246Z,8.67
2019-05-23T03:05:15.431Z,9.10
2019-05-23T03:07:45.297Z,6.97
2019-05-23T03:10:16.036Z,10.50
2019-05-23T03:12:46.526Z,8.43
2019-05-23T03:15:17.236Z,10.07
2019-05-23T03:17:48.960Z,11.03
2019-05-23T03:20:19.399Z,8.50
2019-05-23T03:22:51.012Z,8.43
2019-05-23T03:25:39.398Z,12.23
2019-05-23T03:28:12.650Z,10.13
2019-05-23T03:30:48.430Z,13.23
2019-05-23T03:33:18.629Z,11.90
2019-05-23T03:35:51.664Z,8.43
2019-05-23T03:38:20.916Z,10.90
2019-05-23T03:40:49.766Z,10.27
2019-05-23T03:43:19.174Z,5.90
2019-05-23T03:45:52.642Z,10.20
2019-05-23T03:48:23.879Z,9.90
2019-05-23T03:50:55.269Z,8.30
2019-05-23T03:53:25.655Z,12.67
2019-05-23T03:55:54.329Z,7.00
2019-05-23T03:58:25.539Z,9.90
2019-05-23T04:00:54.897Z,7.77
2019-05-23T04:03:27.308Z,12.27
2019-05-23T04:05:57.088Z,8.43
2019-05-23T04:08:27.045Z,8.60
2019-05-23T04:10:56.385Z,9.40
2019-05-23T04:13:25.533Z,10.83
2019-05-23T04:15:54.291Z,8.57
2019-05-23T04:18:22.880Z,10.43
2019-05-23T04:20:51.959Z,10.13
2019-05-23T04:23:21.031Z,9.47
2019-05-23T04:25:50.157Z,9.07
2019-05-23T04:28:19.079Z,8.53
2019-05-23T04:30:47.981Z,8.93
2019-05-23T04:33:17.111Z,10.97
2019-05-23T04:35:45.754Z,12.30
2019-05-23T04:38:15.639Z,11.00
2019-05-23T04:40:44.454Z,12.03
2019-05-23T04:43:13.048Z,10.83
2019-05-23T04:45:42.471Z,11.07
2019-05-23T04:48:11.719Z,11.10
2019-05-23T04:50:41.357Z,11.97
2019-05-23T04:53:09.912Z,7.03
2019-05-23T04:55:39.690Z,9.23
2019-05-23T04:58:09.000Z,8.00
2019-05-23T05:00:38.233Z,10.23
2019-05-23T05:03:08.632Z,10.97
2019-05-23T05:05:37.821Z,11.80
2019-05-23T05:08:08.584Z,9.23
2019-05-23T05:10:37.445Z,14.73
2019-05-23T05:13:06.333Z,11.77
2019-05-23T05:15:35.546Z,7.27
2019-05-23T05:18:04.623Z,7.07
2019-05-23T05:20:33.306Z,7.67
2019-05-23T05:23:02.007Z,9.50
2019-05-23T05:25:31.322Z,11.00
2019-05-23T05:28:00.812Z,6.83
2019-05-23T05:30:29.733Z,6.67
2019-05-23T05:32:58.347Z,9.73
2019-05-23T05:35:27.399Z,8.77
2019-05-23T05:37:56.548Z,9.30
2019-05-23T05:40:26.080Z,10.47
2019-05-23T05:42:55.536Z,8.00
2019-05-23T05:45:24.199Z,7.47
2019-05-23T05:47:52.875Z,5.10
2019-05-23T05:50:23.614Z,6.13
2019-05-23T05:52:52.197Z,7.33
2019-05-23T05:55:21.225Z,5.03
2019-05-23T05:57:49.907Z,7.90
2019-05-23T06:00:21.317Z,6.30
2019-05-23T06:03:03.531Z,6.83
2019-05-23T06:08:13.955Z,10.97
2019-05-23T06:10:43.491Z,8.83
2019-05-23T06:13:12.667Z,7.53
2019-05-23T06:15:41.657Z,7.80
2019-05-23T06:18:10.950Z,8.80
2019-05-23T06:20:43.271Z,5.70
2019-05-23T06:23:15.652Z,8.90
2019-05-23T06:25:44.531Z,6.20
2019-05-23T06:28:14.807Z,6.27
2019-05-23T06:30:44.108Z,3.93
2019-05-23T06:33:22.530Z,6.27
2019-05-23T06:35:44.160Z,7.67
2019-05-23T06:38:12.735Z,5.10
2019-05-23T06:40:41.803Z,5.00
2019-05-23T06:43:12.154Z,4.97
2019-05-23T06:45:42.716Z,4.20
2019-05-23T06:48:14.350Z,4.23
2019-05-23T06:50:42.924Z,3.98
2019-05-23T06:53:11.810Z,3.67
2019-05-23T06:55:40.475Z,5.42
2019-05-23T06:58:13.211Z,3.35
2019-05-23T07:00:42.986Z,6.03
2019-05-23T07:03:12.575Z,2.37
2019-05-23T07:05:42.071Z,1.85
2019-05-23T07:08:10.645Z,4.78
2019-05-23T07:10:43.433Z,1.85
2019-05-23T07:13:12.873Z,2.98
2019-05-23T07:15:42.255Z,6.03
2019-05-23T07:18:11.202Z,3.02
2019-05-23T07:20:39.847Z,3.50
2019-05-23T07:23:11.453Z,4.03
2019-05-23T07:25:40.050Z,4.78
2019-05-23T07:28:08.650Z,3.02
2019-05-23T07:30:37.538Z,2.95
2019-05-23T07:33:06.096Z,3.25
2019-05-23T07:35:35.067Z,1.42
2019-05-23T07:38:03.773Z,1.80
2019-05-23T07:40:32.724Z,2.17
2019-05-23T07:43:01.453Z,2.27
2019-05-23T07:45:31.739Z,4.20
2019-05-23T07:48:00.563Z,4.50
2019-05-23T07:50:29.124Z,3.17
2019-05-23T07:52:59.668Z,4.60
2019-05-23T07:58:19.316Z,5.25
2019-05-23T08:00:52.407Z,4.75
2019-05-23T08:03:22.556Z,3.67
2019-05-23T08:05:51.132Z,3.62
2019-05-23T08:08:19.978Z,4.05
2019-05-23T08:10:48.577Z,3.52
2019-05-23T08:13:17.416Z,2.62
2019-05-23T08:15:46.783Z,3.17
2019-05-23T08:18:15.904Z,2.40
2019-05-23T08:20:46.285Z,2.55
2019-05-23T08:23:16.313Z,4.25
2019-05-23T08:25:45.100Z,3.50
2019-05-23T08:28:13.660Z,3.27
2019-05-23T08:30:42.504Z,2.75
2019-05-23T08:33:12.671Z,1.70
2019-05-23T08:35:41.320Z,3.52
2019-05-23T08:38:10.304Z,3.55
2019-05-23T08:40:39.800Z,3.87
2019-05-23T08:43:09.081Z,3.00
2019-05-23T08:45:37.721Z,1.65
2019-05-23T08:48:06.523Z,4.62
2019-05-23T08:50:35.174Z,4.58
2019-05-23T08:53:04.064Z,1.77
2019-05-23T08:55:33.396Z,1.75
2019-05-23T08:58:02.801Z,2.47
2019-05-23T09:00:33.082Z,5.35
2019-05-23T09:03:03.908Z,1.60
2019-05-23T09:05:37.103Z,4.97
2019-05-23T09:08:08.513Z,2.62
2019-05-23T09:10:39.230Z,3.50
2019-05-23T09:13:08.707Z,4.20
2019-05-23T09:15:37.530Z,5.12
2019-05-23T09:18:07.177Z,3.80
2019-05-23T09:20:36.401Z,4.15
2019-05-23T09:23:05.482Z,4.42
2019-05-23T09:25:34.139Z,7.35
2019-05-23T09:28:03.621Z,2.65
2019-05-23T09:30:32.562Z,2.10
2019-05-23T09:33:01.787Z,5.35
2019-05-23T09:35:30.560Z,4.97
2019-05-23T09:37:59.199Z,2.83
2019-05-23T09:40:27.735Z,4.53
2019-05-23T09:42:56.296Z,3.15
2019-05-23T09:45:25.239Z,2.72
2019-05-23T09:47:53.757Z,4.25
2019-05-23T09:50:24.017Z,5.17
2019-05-23T09:52:52.873Z,2.50
2019-05-23T09:55:22.094Z,3.15
2019-05-23T09:57:50.703Z,1.65
2019-05-23T10:00:21.594Z,2.17
2019-05-23T10:02:50.724Z,3.65
2019-05-23T10:05:19.245Z,2.77
2019-05-23T10:07:47.958Z,1.82
2019-05-23T10:10:17.760Z,4.75
2019-05-23T10:12:46.589Z,2.33
2019-05-23T10:15:33.718Z,3.52
2019-05-23T10:18:02.706Z,4.42
2019-05-23T10:20:33.801Z,3.12
2019-05-23T10:23:03.272Z,2.55
2019-05-23T10:25:33.367Z,2.05
2019-05-23T10:28:08.429Z,3.15
2019-05-23T10:30:37.280Z,2.05
2019-05-23T10:33:11.441Z,6.58
2019-05-23T10:35:37.386Z,1.70
2019-05-23T10:38:06.032Z,1.80
2019-05-23T10:40:34.979Z,2.30
2019-05-23T10:43:03.847Z,3.40
2019-05-23T10:45:32.696Z,1.90
2019-05-23T10:48:01.624Z,2.93
2019-05-23T10:50:43.546Z,3.40
2019-05-23T10:53:00.443Z,2.43
2019-05-23T10:55:29.057Z,2.97
2019-05-23T10:57:57.652Z,4.33
2019-05-23T11:00:27.929Z,1.97
2019-05-23T11:02:56.781Z,5.60
2019-05-23T11:05:25.813Z,2.70
2019-05-23T11:07:54.862Z,1.73
2019-05-23T11:10:24.003Z,2.90
2019-05-23T11:12:54.233Z,2.13
2019-05-23T11:15:22.741Z,3.37
2019-05-23T11:17:53.613Z,4.07
2019-05-23T11:20:22.159Z,4.27
2019-05-23T11:22:50.987Z,2.50
2019-05-23T11:25:20.625Z,4.40
2019-05-23T11:27:49.204Z,3.43
2019-05-23T11:30:34.384Z,3.37
2019-05-23T11:33:02.917Z,2.70
2019-05-23T11:35:31.449Z,2.23
2019-05-23T11:38:01.225Z,3.97
2019-05-23T11:40:33.540Z,3.30
2019-05-23T11:43:00.189Z,3.50
2019-05-23T11:45:30.641Z,2.23
2019-05-23T11:47:59.304Z,5.17
2019-05-23T11:50:28.130Z,5.63
2019-05-23T11:52:57.083Z,3.03
2019-05-23T11:55:26.012Z,2.97
2019-05-23T11:57:54.827Z,3.83
2019-05-23T12:00:54.033Z,2.53
2019-05-23T12:03:22.588Z,3.90
2019-05-23T12:05:51.738Z,3.50
2019-05-23T12:08:20.516Z,2.97
2019-05-23T12:10:49.676Z,3.40
2019-05-23T12:13:18.443Z,4.60
2019-05-23T12:15:49.775Z,5.17
2019-05-23T12:18:18.499Z,2.87
2019-05-23T12:20:47.130Z,3.83
2019-05-23T12:23:15.636Z,3.13
2019-05-23T12:25:44.151Z,3.50
2019-05-23T12:28:13.345Z,2.73
2019-05-23T12:30:42.202Z,4.40
2019-05-23T12:33:10.826Z,2.00
2019-05-23T12:35:39.444Z,3.57
2019-05-23T12:38:08.369Z,3.90
2019-05-23T12:40:36.924Z,3.70
2019-05-23T12:43:05.525Z,5.17
2019-05-23T12:45:34.118Z,5.10
2019-05-23T12:48:07.495Z,5.47
2019-05-23T12:50:40.685Z,3.13
2019-05-23T12:53:11.336Z,3.57
2019-05-23T12:55:39.985Z,2.40
2019-05-23T12:58:08.611Z,4.00
2019-05-23T13:00:42.093Z,5.50
2019-05-23T13:03:13.247Z,4.70
2019-05-23T13:05:42.840Z,3.70
2019-05-23T13:08:11.627Z,4.50
2019-05-23T13:10:40.499Z,3.07
2019-05-23T13:13:10.025Z,1.70
2019-05-23T13:15:38.633Z,3.43
2019-05-23T13:18:07.505Z,3.07
2019-05-23T13:20:37.756Z,1.60
2019-05-23T13:23:07.145Z,2.70
2019-05-23T13:25:36.245Z,3.10
2019-05-23T13:28:06.044Z,2.20
2019-05-23T13:30:34.677Z,1.90
2019-05-23T13:33:04.140Z,2.97
2019-05-23T13:35:33.794Z,2.53
2019-05-23T13:38:02.412Z,3.87
2019-05-23T13:40:31.271Z,3.33
2019-05-23T13:42:59.908Z,3.10
2019-05-23T13:45:28.500Z,3.93
2019-05-23T13:47:57.075Z,1.90
2019-05-23T13:50:26.982Z,4.23
2019-05-23T13:52:55.533Z,5.13
2019-05-23T13:55:24.483Z,2.97
2019-05-23T13:57:53.052Z,2.30
2019-05-23T14:00:22.794Z,3.03
2019-05-23T14:02:51.527Z,3.37
2019-05-23T14:05:20.964Z,2.23
2019-05-23T14:07:49.539Z,3.00
2019-05-23T14:10:18.496Z,4.90
2019-05-23T14:12:47.588Z,3.70
2019-05-23T14:15:21.805Z,3.53
2019-05-23T14:17:50.361Z,4.47
2019-05-23T14:20:21.311Z,3.37
2019-05-23T14:22:51.686Z,2.43
2019-05-23T14:25:20.652Z,3.33
2019-05-23T14:27:50.950Z,2.83
2019-05-23T14:30:21.945Z,2.43
2019-05-23T14:32:58.002Z,2.87
2019-05-23T14:35:30.986Z,1.80
2019-05-23T14:38:01.638Z,5.53
2019-05-23T14:40:33.467Z,2.03
2019-05-23T14:43:06.759Z,5.00
2019-05-23T14:45:55.112Z,2.47
2019-05-23T14:48:25.408Z,1.50
2019-05-23T14:50:58.317Z,1.63
2019-05-23T14:53:29.080Z,2.70
2019-05-23T14:56:00.237Z,3.13
2019-05-23T14:58:29.265Z,2.97
2019-05-23T15:00:59.997Z,1.73
2019-05-23T15:03:29.158Z,2.33
2019-05-23T15:05:58.191Z,1.90
2019-05-23T15:08:27.283Z,2.23
2019-05-23T15:10:55.898Z,2.80
2019-05-23T15:13:24.443Z,4.50
2019-05-23T15:15:52.969Z,31.20
2019-05-23T15:18:21.472Z,4.80
2019-05-23T15:21:11.961Z,4.20
2019-05-23T15:23:40.605Z,2.67
2019-05-23T15:26:22.591Z,2.93
2019-05-23T15:28:39.821Z,2.40
2019-05-23T15:31:08.788Z,2.40
2019-05-23T15:33:37.472Z,1.67
2019-05-23T15:36:06.526Z,2.13
2019-05-23T15:38:35.066Z,3.47
2019-05-23T15:41:03.970Z,2.93
2019-05-23T15:43:32.592Z,3.40
2019-05-23T15:46:01.116Z,2.27
2019-05-23T15:48:29.767Z,1.87
2019-05-23T15:50:58.275Z,3.80
2019-05-23T15:53:37.707Z,2.00
2019-05-23T15:56:28.446Z,1.73
2019-05-23T15:59:12.596Z,1.77
2019-05-23T16:01:55.004Z,1.53
2019-05-23T16:04:25.012Z,2.13
2019-05-23T16:06:54.730Z,3.43
2019-05-23T16:09:29.906Z,2.50
2019-05-23T16:11:54.446Z,1.40
2019-05-23T16:14:23.716Z,2.57
2019-05-23T16:16:56.207Z,1.60
2019-05-23T16:19:23.408Z,5.83
2019-05-23T16:21:52.308Z,2.30
2019-05-23T16:24:21.371Z,2.00
2019-05-23T16:26:50.091Z,2.33
2019-05-23T16:29:19.448Z,2.37
2019-05-23T16:31:48.163Z,3.83
2019-05-23T16:34:16.780Z,4.50
2019-05-23T16:36:45.349Z,1.40
2019-05-23T16:39:14.085Z,1.70
2019-05-23T16:41:42.578Z,2.43
2019-05-23T16:44:11.206Z,4.07
2019-05-23T16:46:40.058Z,3.30
2019-05-23T16:49:08.698Z,3.37
2019-05-23T16:51:37.451Z,2.30
2019-05-23T16:54:06.620Z,1.63
2019-05-23T16:56:37.114Z,2.30
2019-05-23T16:59:22.568Z,2.20
2019-05-23T17:02:04.961Z,1.87
2019-05-23T17:04:28.173Z,3.57
2019-05-23T17:06:58.454Z,2.87
2019-05-23T17:09:32.263Z,2.43
2019-05-23T17:12:12.323Z,2.83
2019-05-23T17:14:55.089Z,2.17
2019-05-23T17:17:57.009Z,4.97
2019-05-23T17:20:19.764Z,2.00
2019-05-23T17:23:03.221Z,2.03
2019-05-23T17:25:39.147Z,1.77
2019-05-23T17:28:12.175Z,2.90
2019-05-23T17:30:59.013Z,2.17
2019-05-23T17:33:29.279Z,2.30
2019-05-23T17:35:57.794Z,2.50
2019-05-23T17:38:26.495Z,2.43
2019-05-23T17:40:55.443Z,3.97
2019-05-23T17:43:24.207Z,1.43
2019-05-23T17:45:52.779Z,2.97
2019-05-23T17:48:21.255Z,4.60
2019-05-23T17:50:49.754Z,2.17
2019-05-23T17:53:18.580Z,4.33
2019-05-23T17:55:47.179Z,1.77
2019-05-23T17:58:17.506Z,2.20
2019-05-23T18:00:47.679Z,1.93
2019-05-23T18:03:16.645Z,1.93
2019-05-23T18:05:45.310Z,2.03
2019-05-23T18:08:15.176Z,2.60
2019-05-23T18:10:46.300Z,2.43
2019-05-23T18:13:15.341Z,2.63
2019-05-23T18:15:44.538Z,1.70
2019-05-23T18:18:13.570Z,1.93
2019-05-23T18:20:43.038Z,2.77
2019-05-23T18:23:11.771Z,4.27
2019-05-23T18:25:41.492Z,1.53
2019-05-23T18:28:12.304Z,2.07
2019-05-23T18:30:56.785Z,1.80
2019-05-23T18:33:25.612Z,2.80
2019-05-23T18:35:56.279Z,2.80
2019-05-23T18:38:25.276Z,2.20
2019-05-23T18:41:04.017Z,2.40
2019-05-23T18:43:26.027Z,2.10
2019-05-23T18:45:56.126Z,2.60
2019-05-23T18:48:24.659Z,4.73
2019-05-23T18:50:53.390Z,1.73
2019-05-23T18:53:22.764Z,2.53
2019-05-23T18:55:51.817Z,2.23
2019-05-23T18:58:20.678Z,2.97
2019-05-23T19:00:57.099Z,2.13
2019-05-23T19:03:26.132Z,2.57
2019-05-23T19:05:54.794Z,1.93
2019-05-23T19:08:23.466Z,2.23
2019-05-23T19:10:52.558Z,3.10
2019-05-23T19:13:21.118Z,2.83
2019-05-23T19:15:50.120Z,2.10
2019-05-23T19:18:18.967Z,2.57
2019-05-23T19:20:54.462Z,4.30
2019-05-23T19:23:21.998Z,3.13
2019-05-23T19:25:50.486Z,3.17
2019-05-23T19:28:20.420Z,3.90
2019-05-23T19:30:49.091Z,2.70
2019-05-23T19:33:18.196Z,4.00
2019-05-23T19:35:47.666Z,4.43
2019-05-23T19:38:18.634Z,3.17
2019-05-23T19:40:47.459Z,3.87
2019-05-23T19:43:17.760Z,3.20
2019-05-23T19:45:47.113Z,2.53
2019-05-23T19:48:15.912Z,4.03
2019-05-23T19:50:44.418Z,4.50
2019-05-23T19:53:13.210Z,3.07
2019-05-23T19:55:42.120Z,2.90
2019-05-23T19:58:11.221Z,2.87
2019-05-23T20:00:40.882Z,4.57
2019-05-23T20:03:09.818Z,5.47
2019-05-23T20:05:58.288Z,4.40
2019-05-23T20:08:26.772Z,6.17
2019-05-23T20:10:55.463Z,5.73
2019-05-23T20:13:24.760Z,4.87
2019-05-23T20:15:53.405Z,3.97
2019-05-23T20:18:22.200Z,5.93
2019-05-23T20:20:51.434Z,4.93
2019-05-23T20:23:21.265Z,4.03
2019-05-23T20:25:49.986Z,5.87
2019-05-23T20:28:18.634Z,5.77
2019-05-23T20:30:54.093Z,4.80
2019-05-23T20:33:22.788Z,5.00
2019-05-23T20:35:51.498Z,5.90
2019-05-23T20:38:20.105Z,4.50
2019-05-23T20:40:54.932Z,4.30
2019-05-23T20:43:23.481Z,5.97
2019-05-23T20:45:51.965Z,4.80
2019-05-23T20:48:20.874Z,4.67
2019-05-23T20:50:49.530Z,4.10
2019-05-23T20:53:18.082Z,3.97
2019-05-23T20:55:46.705Z,7.73
2019-05-23T20:58:16.071Z,4.70
2019-05-23T21:00:46.389Z,5.07
2019-05-23T21:03:14.894Z,4.10
2019-05-23T21:05:43.385Z,4.53
2019-05-23T21:08:12.021Z,5.57
2019-05-23T21:10:46.340Z,4.53
2019-05-23T21:13:15.050Z,4.57
2019-05-23T21:15:43.871Z,6.33
2019-05-23T21:18:13.078Z,6.30
2019-05-23T21:20:42.027Z,4.50
2019-05-23T21:23:10.671Z,7.93
2019-05-23T21:25:40.897Z,9.33
2019-05-23T21:28:10.132Z,6.70
2019-05-23T21:30:38.645Z,6.33
2019-05-23T21:33:07.254Z,4.80
2019-05-23T21:35:35.842Z,6.17
2019-05-23T21:38:04.532Z,7.60
2019-05-23T21:40:36.120Z,5.90
2019-05-23T21:43:05.472Z,5.93
2019-05-23T21:45:34.621Z,9.70
2019-05-23T21:48:03.509Z,10.83
2019-05-23T21:50:32.259Z,12.10
2019-05-23T21:53:00.770Z,10.77
2019-05-23T21:55:43.242Z,7.53
2019-05-23T21:58:13.693Z,5.93
2019-05-23T22:01:07.959Z,5.00
2019-05-23T22:03:54.394Z,6.10
2019-05-23T22:06:28.663Z,5.73
2019-05-23T22:08:57.593Z,5.10
2019-05-23T22:11:26.442Z,5.43
2019-05-23T22:13:54.953Z,4.00
2019-05-23T22:16:23.992Z,5.70
2019-05-23T22:18:52.636Z,5.47
2019-05-23T22:21:21.753Z,4.97
2019-05-23T22:23:50.487Z,4.83
2019-05-23T22:26:19.253Z,5.27
2019-05-23T22:28:48.506Z,4.47
2019-05-23T22:31:17.364Z,4.67
2019-05-23T22:36:43.637Z,4.60
2019-05-23T22:39:12.275Z,5.17
2019-05-23T22:41:40.793Z,5.77
2019-05-23T22:44:09.549Z,5.50
2019-05-23T22:46:38.797Z,6.53
2019-05-23T22:49:07.511Z,4.80
2019-05-23T22:51:36.045Z,7.73
2019-05-23T22:54:04.757Z,6.63
2019-05-23T22:56:33.255Z,5.43
2019-05-23T22:59:01.734Z,4.83
2019-05-23T23:01:30.919Z,5.27
2019-05-23T23:03:59.468Z,5.23
2019-05-23T23:06:28.811Z,4.13
2019-05-23T23:08:57.472Z,6.47
2019-05-23T23:11:25.962Z,4.37
2019-05-23T23:13:54.483Z,7.03
2019-05-23T23:16:22.954Z,4.17
2019-05-23T23:18:52.183Z,5.00
2019-05-23T23:21:20.677Z,4.30
2019-05-23T23:23:49.195Z,5.97
2019-05-23T23:26:17.808Z,5.20
2019-05-23T23:28:46.302Z,5.10
2019-05-23T23:31:14.915Z,7.20
2019-05-23T23:33:43.494Z,6.03
2019-05-23T23:36:11.980Z,5.97
2019-05-23T23:38:40.463Z,5.17
2019-05-23T23:41:09.007Z,4.90
2019-05-23T23:43:37.526Z,6.93
2019-05-23T23:46:24.067Z,5.53
2019-05-23T23:52:02.278Z,6.37
2019-05-23T23:54:48.763Z,4.93
2019-05-23T23:57:35.638Z,4.63
